createdAt,value
2022-08-30T00:05:57.984Z,3.38
2022-08-30T00:09:03.580Z,3.30
2022-08-30T00:12:02.761Z,3.60
2022-08-30T00:15:25.703Z,3.60
2022-08-30T00:18:28.859Z,3.60
2022-08-30T00:24:25.313Z,3.17
2022-08-30T00:27:06.132Z,3.42
2022-08-30T00:41:25.941Z,3.13
2022-08-30T00:44:06.457Z,3.35
2022-08-30T01:05:02.606Z,3.03
2022-08-30T01:20:37.872Z,3.08
2022-08-30T01:24:42.381Z,3.42
2022-08-30T01:28:29.702Z,3.13
2022-08-30T01:31:15.586Z,3.27
2022-08-30T01:34:49.938Z,3.25
2022-08-30T01:37:50.241Z,3.40
2022-08-30T01:40:34.084Z,3.53
2022-08-30T01:43:12.729Z,3.05
2022-08-30T01:46:52.705Z,3.28
2022-08-30T01:52:50.791Z,3.40
2022-08-30T01:55:39.195Z,3.80
2022-08-30T01:59:05.624Z,3.40
2022-08-30T02:02:18.193Z,3.35
2022-08-30T02:04:58.728Z,3.17
2022-08-30T02:07:35.047Z,3.30
2022-08-30T02:10:37.229Z,3.60
2022-08-30T02:13:06.496Z,3.40
2022-08-30T02:15:41.743Z,3.33
2022-08-30T02:18:29.331Z,3.53
2022-08-30T02:21:08.521Z,3.50
2022-08-30T02:23:58.416Z,3.30
2022-08-30T02:26:38.423Z,3.20
2022-08-30T02:29:37.790Z,3.42
2022-08-30T02:32:45.272Z,3.20
2022-08-30T02:36:00.937Z,3.20
2022-08-30T02:38:37.085Z,2.88
2022-08-30T02:42:01.916Z,2.83
2022-08-30T02:44:50.041Z,2.72
2022-08-30T02:47:30.752Z,2.85
2022-08-30T02:50:13.374Z,3.10
2022-08-30T02:53:26.121Z,2.38
2022-08-30T02:56:21.883Z,2.42
2022-08-30T02:58:56.717Z,2.97
2022-08-30T03:01:29.450Z,2.78
2022-08-30T03:04:06.254Z,2.67
2022-08-30T03:06:42.604Z,2.58
2022-08-30T03:09:17.717Z,2.80
2022-08-30T03:11:53.480Z,2.50
2022-08-30T03:14:30.439Z,2.70
2022-08-30T03:17:15.351Z,2.60
2022-08-30T03:19:49.705Z,2.97
2022-08-30T03:22:30.070Z,2.75
2022-08-30T03:25:17.742Z,2.75
2022-08-30T03:27:58.709Z,2.45
2022-08-30T03:30:36.296Z,2.40
2022-08-30T03:33:05.900Z,2.53
2022-08-30T03:35:40.165Z,2.90
2022-08-30T03:38:17.516Z,2.80
2022-08-30T03:40:50.143Z,2.70
2022-08-30T03:43:29.229Z,2.65
2022-08-30T03:46:28.726Z,2.75
2022-08-30T03:49:18.960Z,2.65
2022-08-30T03:55:46.105Z,2.65
2022-08-30T03:58:58.094Z,2.60
2022-08-30T04:02:13.896Z,2.47
2022-08-30T04:05:39.033Z,2.40
2022-08-30T04:08:26.354Z,2.28
2022-08-30T04:11:06.395Z,2.13
2022-08-30T04:14:20.318Z,2.30
2022-08-30T04:17:03.906Z,2.10
2022-08-30T04:19:33.313Z,2.40
2022-08-30T04:22:02.736Z,2.20
2022-08-30T04:24:44.570Z,2.40
2022-08-30T04:27:17.082Z,2.63
2022-08-30T04:30:25.610Z,2.30
2022-08-30T04:33:39.902Z,2.05
2022-08-30T04:36:48.149Z,2.00
2022-08-30T04:39:35.774Z,2.10
2022-08-30T04:42:34.643Z,2.20
2022-08-30T04:45:06.162Z,2.63
2022-08-30T04:47:35.693Z,2.20
2022-08-30T04:50:10.152Z,2.08
2022-08-30T04:53:12.256Z,2.20
2022-08-30T04:55:54.491Z,2.20
2022-08-30T04:58:28.550Z,2.30
2022-08-30T05:04:28.147Z,2.15
2022-08-30T05:07:00.565Z,2.20
2022-08-30T05:09:29.789Z,2.40
2022-08-30T05:11:59.852Z,2.38
2022-08-30T05:15:03.132Z,2.30
2022-08-30T05:17:33.900Z,2.10
2022-08-30T05:20:03.610Z,2.50
2022-08-30T05:23:13.717Z,2.40
2022-08-30T05:25:59.889Z,2.25
2022-08-30T05:28:38.116Z,2.22
2022-08-30T05:31:15.970Z,2.30
2022-08-30T05:34:42.526Z,2.33
2022-08-30T05:37:26.055Z,2.28
2022-08-30T05:40:02.162Z,2.75
2022-08-30T05:42:37.397Z,2.10
2022-08-30T05:45:08.388Z,2.65
2022-08-30T05:47:38.594Z,2.25
2022-08-30T05:50:16.673Z,2.40
2022-08-30T05:56:13.685Z,2.40
2022-08-30T05:58:58.484Z,2.50
2022-08-30T06:01:36.178Z,2.25
2022-08-30T06:04:57.786Z,2.40
2022-08-30T06:07:27.907Z,2.10
2022-08-30T06:09:59.415Z,2.08
2022-08-30T06:12:36.789Z,2.10
2022-08-30T06:15:10.972Z,2.22
2022-08-30T06:17:42.337Z,2.28
2022-08-30T06:20:16.401Z,2.28
2022-08-30T06:22:45.720Z,2.30
2022-08-30T06:25:17.355Z,2.17
2022-08-30T06:27:48.109Z,2.20
2022-08-30T06:30:17.596Z,2.20
2022-08-30T06:32:49.945Z,2.70
2022-08-30T06:35:21.996Z,2.30
2022-08-30T06:38:07.684Z,2.38
2022-08-30T06:40:45.808Z,2.40
2022-08-30T06:43:19.895Z,2.45
2022-08-30T06:45:50.920Z,2.28
2022-08-30T06:48:21.884Z,2.35
2022-08-30T06:50:56.014Z,2.30
2022-08-30T06:53:25.268Z,2.35
2022-08-30T06:56:09.198Z,2.40
2022-08-30T06:58:52.309Z,2.45
2022-08-30T07:01:22.364Z,2.20
2022-08-30T07:03:53.549Z,2.30
2022-08-30T07:06:34.115Z,2.28
2022-08-30T07:09:10.232Z,2.30
2022-08-30T07:12:02.119Z,2.15
2022-08-30T07:18:14.184Z,2.00
2022-08-30T07:21:37.153Z,1.95
2022-08-30T07:24:08.722Z,2.10
2022-08-30T07:26:57.790Z,2.05
2022-08-30T07:29:30.043Z,2.30
2022-08-30T07:31:59.746Z,2.00
2022-08-30T09:11:17.805Z,1.77
2022-08-30T09:13:46.225Z,2.00
2022-08-30T09:16:36.508Z,1.95
2022-08-30T09:19:07.928Z,2.00
2022-08-30T09:21:38.072Z,1.92
2022-08-30T09:24:16.648Z,1.85
2022-08-30T09:26:56.469Z,2.00
2022-08-30T09:29:29.065Z,2.22
2022-08-30T09:32:22.434Z,1.85
2022-08-30T09:34:58.857Z,2.00
2022-08-30T09:37:54.083Z,2.10
2022-08-30T09:40:37.933Z,1.90
2022-08-30T09:43:11.966Z,1.83
2022-08-30T09:46:54.383Z,1.98
2022-08-30T09:49:32.730Z,1.90
2022-08-30T09:52:26.729Z,2.15
2022-08-30T09:55:01.746Z,1.98
2022-08-30T09:57:56.237Z,2.20
2022-08-30T10:00:29.413Z,2.08
2022-08-30T10:03:34.842Z,2.30
2022-08-30T10:06:25.950Z,1.95
2022-08-30T10:09:02.914Z,2.00
2022-08-30T10:11:44.370Z,1.80
2022-08-30T10:14:33.789Z,2.08
2022-08-30T10:17:06.407Z,1.60
2022-08-30T10:19:47.683Z,1.80
2022-08-30T10:22:21.594Z,2.00
2022-08-30T10:25:50.775Z,2.13
2022-08-30T10:28:47.184Z,1.95
2022-08-30T10:31:45.112Z,2.20
2022-08-30T10:34:32.761Z,2.13
2022-08-30T10:37:08.561Z,2.00
2022-08-30T10:39:56.241Z,1.92
2022-08-30T10:42:31.756Z,2.00
2022-08-30T10:45:09.824Z,2.08
2022-08-30T10:47:50.810Z,2.00
2022-08-30T10:50:30.407Z,1.70
2022-08-30T10:53:01.669Z,1.83
2022-08-30T10:55:34.242Z,1.83
2022-08-30T11:00:46.536Z,1.55
2022-08-30T11:03:16.422Z,1.80
2022-08-30T11:06:08.562Z,1.98
2022-08-30T11:12:31.163Z,1.80
2022-08-30T11:18:56.349Z,1.95
2022-08-30T11:49:39.670Z,1.80
2022-08-30T11:52:33.513Z,1.88
2022-08-30T11:55:12.616Z,1.80
2022-08-30T11:58:01.981Z,1.77
2022-08-30T12:00:48.993Z,2.00
2022-08-30T12:03:22.643Z,2.13
2022-08-30T12:05:59.080Z,2.30
2022-08-30T12:08:47.997Z,2.38
2022-08-30T12:11:17.205Z,2.30
2022-08-30T12:14:02.160Z,2.50
2022-08-30T12:17:07.846Z,2.60
2022-08-30T12:19:36.475Z,2.50
2022-08-30T12:22:17.325Z,2.35
2022-08-30T12:24:49.688Z,2.38
2022-08-30T12:27:24.213Z,2.40
2022-08-30T12:30:10.031Z,2.13
2022-08-30T12:32:46.121Z,2.45
2022-08-30T12:35:22.496Z,2.35
2022-08-30T12:38:02.207Z,2.70
2022-08-30T12:40:32.473Z,2.72
2022-08-30T12:43:09.449Z,2.80
2022-08-30T12:45:42.532Z,2.70
2022-08-30T12:48:18.090Z,2.92
2022-08-30T12:50:59.642Z,2.97
2022-08-30T12:53:37.608Z,2.80
2022-08-30T12:56:11.850Z,2.67
2022-08-30T12:58:44.148Z,3.03
2022-08-30T13:01:21.759Z,3.30
2022-08-30T13:03:57.936Z,2.90
2022-08-30T13:06:37.993Z,2.95
2022-08-30T13:09:07.851Z,2.95
2022-08-30T13:11:36.569Z,2.85
2022-08-30T13:14:45.659Z,3.00
2022-08-30T13:17:26.180Z,2.63
2022-08-30T13:20:01.667Z,2.83
2022-08-30T13:22:36.184Z,2.90
2022-08-30T13:25:08.687Z,2.88
2022-08-30T13:27:38.706Z,3.20
2022-08-30T13:30:17.881Z,3.08
2022-08-30T13:32:50.806Z,2.72
2022-08-30T13:35:20.229Z,3.13
2022-08-30T13:38:06.802Z,3.42
2022-08-30T13:40:37.719Z,3.00
2022-08-30T13:43:13.495Z,3.40
2022-08-30T13:45:42.734Z,3.10
2022-08-30T13:48:15.250Z,3.63
2022-08-30T13:50:46.231Z,3.42
2022-08-30T13:53:51.740Z,3.58
2022-08-30T13:56:09.296Z,3.20
2022-08-30T13:58:45.241Z,3.60
2022-08-30T14:01:18.829Z,3.50
2022-08-30T14:09:36.511Z,3.47
2022-08-30T14:12:57.324Z,3.47
2022-08-30T14:18:45.734Z,3.58
2022-08-30T14:21:17.198Z,3.60
2022-08-30T14:23:50.672Z,3.78
2022-08-30T14:26:32.326Z,4.25
2022-08-30T14:29:10.783Z,4.07
2022-08-30T14:32:06.801Z,3.70
2022-08-30T14:34:38.279Z,3.70
2022-08-30T14:37:08.713Z,3.88
2022-08-30T14:39:58.511Z,3.55
2022-08-30T14:42:34.094Z,3.78
2022-08-30T14:45:22.451Z,3.72
2022-08-30T14:48:00.772Z,4.22
2022-08-30T14:51:10.266Z,3.75
2022-08-30T14:53:55.507Z,4.00
2022-08-30T14:56:38.712Z,4.10
2022-08-30T14:59:21.778Z,3.88
2022-08-30T15:02:04.904Z,4.10
2022-08-30T15:05:10.808Z,4.38
2022-08-30T15:08:02.330Z,4.05
2022-08-30T15:10:46.407Z,4.20
2022-08-30T15:13:22.479Z,3.92
2022-08-30T15:15:57.122Z,3.95
2022-08-30T15:18:30.913Z,4.13
2022-08-30T15:21:05.430Z,4.13
2022-08-30T15:23:54.939Z,4.10
2022-08-30T15:27:06.028Z,4.22
2022-08-30T15:29:40.556Z,4.15
2022-08-30T15:32:24.153Z,4.20
2022-08-30T15:35:03.091Z,4.07
2022-08-30T15:37:33.087Z,3.97
2022-08-30T15:40:04.673Z,3.92
2022-08-30T15:43:33.883Z,4.15
2022-08-30T15:55:02.169Z,3.83
2022-08-30T15:57:37.048Z,4.05
2022-08-30T16:00:19.859Z,4.07
2022-08-30T16:02:50.204Z,3.88
2022-08-30T16:05:22.103Z,4.13
2022-08-30T16:07:53.938Z,4.05
2022-08-30T16:10:22.619Z,4.18
2022-08-30T16:13:02.909Z,4.18
2022-08-30T16:15:50.747Z,3.70
2022-08-30T16:18:20.746Z,4.18
2022-08-30T16:20:49.558Z,4.22
2022-08-30T16:23:33.518Z,3.70
2022-08-30T16:26:03.422Z,4.10
2022-08-30T16:28:45.503Z,4.10
2022-08-30T16:31:26.312Z,4.00
2022-08-30T16:34:14.494Z,3.90
2022-08-30T16:36:46.286Z,4.13
2022-08-30T16:39:18.655Z,4.05
2022-08-30T16:41:48.294Z,3.90
2022-08-30T16:44:18.626Z,4.25
2022-08-30T16:46:52.936Z,3.90
2022-08-30T16:49:25.744Z,4.13
2022-08-30T16:51:54.289Z,4.15
2022-08-30T16:54:52.611Z,4.05
2022-08-30T16:57:21.826Z,4.00
2022-08-30T16:59:53.199Z,3.75
2022-08-30T17:02:21.977Z,3.92
2022-08-30T17:04:56.815Z,3.83
2022-08-30T17:07:45.802Z,3.90
2022-08-30T17:10:23.113Z,3.95
2022-08-30T17:12:57.681Z,3.63
2022-08-30T17:15:28.237Z,4.00
2022-08-30T17:17:59.197Z,3.97
2022-08-30T17:20:36.533Z,3.92
2022-08-30T17:23:06.962Z,4.32
2022-08-30T17:25:40.481Z,4.00
2022-08-30T17:30:53.960Z,4.05
2022-08-30T17:33:22.188Z,3.92
2022-08-30T17:35:56.578Z,4.00
2022-08-30T17:38:26.359Z,3.97
2022-08-30T17:40:55.581Z,3.92
2022-08-30T17:43:26.861Z,4.00
2022-08-30T17:46:05.135Z,4.00
2022-08-30T17:48:37.059Z,4.30
2022-08-30T17:51:38.244Z,3.90
2022-08-30T17:54:08.202Z,3.70
2022-08-30T17:56:42.760Z,3.80
2022-08-30T17:59:26.816Z,3.72
2022-08-30T18:01:58.530Z,4.13
2022-08-30T18:04:59.188Z,3.95
2022-08-30T18:07:30.849Z,3.88
2022-08-30T18:10:00.525Z,4.13
2022-08-30T18:12:30.766Z,4.00
2022-08-30T18:17:31.222Z,3.38
2022-08-30T18:20:02.525Z,3.85
2022-08-30T18:22:33.111Z,3.90
2022-08-30T18:25:27.094Z,4.00
2022-08-30T18:28:17.163Z,3.72
2022-08-30T18:30:49.300Z,3.95
2022-08-30T18:33:21.349Z,3.67
2022-08-30T18:35:51.154Z,3.60
2022-08-30T18:38:23.537Z,3.80
2022-08-30T18:40:58.153Z,3.90
2022-08-30T18:43:30.612Z,3.63
2022-08-30T18:46:09.421Z,3.65
2022-08-30T18:48:51.225Z,3.50
2022-08-30T18:51:21.912Z,3.88
2022-08-30T18:53:50.401Z,3.60
2022-08-30T18:56:20.666Z,3.60
2022-08-30T18:58:52.397Z,3.65
2022-08-30T19:01:23.020Z,3.70
2022-08-30T19:03:52.508Z,3.45
2022-08-30T19:09:28.741Z,3.42
2022-08-30T19:12:09.461Z,3.60
2022-08-30T19:17:18.503Z,3.42
2022-08-30T19:22:20.130Z,3.28
2022-08-30T19:24:50.292Z,2.70
2022-08-30T19:27:37.339Z,2.10
2022-08-30T19:30:57.972Z,1.85
2022-08-30T19:42:10.724Z,1.05
2022-08-30T19:45:23.083Z,1.45
2022-08-30T20:03:36.362Z,1.10
2022-08-30T20:15:21.559Z,1.05
2022-08-30T20:18:05.121Z,0.70
2022-08-30T20:30:35.369Z,0.98
2022-08-30T20:33:14.213Z,1.30
2022-08-30T20:36:30.276Z,0.85
2022-08-30T20:39:18.698Z,1.10
2022-08-30T20:45:10.515Z,1.00
2022-08-30T20:47:53.359Z,1.08
2022-08-30T20:50:40.487Z,1.40
2022-08-30T20:53:24.543Z,1.08
2022-08-30T20:55:55.605Z,1.20
2022-08-30T20:58:26.831Z,1.05
2022-08-30T21:01:02.703Z,1.20
2022-08-30T21:03:35.205Z,1.17
2022-08-30T21:06:06.791Z,0.63
2022-08-30T21:08:50.735Z,1.00
2022-08-30T21:11:30.586Z,1.48
2022-08-30T21:14:00.785Z,1.25
2022-08-30T21:16:30.403Z,1.33
2022-08-30T21:18:59.075Z,1.20
2022-08-30T21:21:36.506Z,1.30
2022-08-30T21:24:10.727Z,1.20
2022-08-30T21:27:13.693Z,1.10
2022-08-30T21:29:46.533Z,1.23
2022-08-30T21:32:22.614Z,1.30
2022-08-30T21:35:18.721Z,1.40
2022-08-30T21:37:49.021Z,1.17
2022-08-30T21:40:22.441Z,1.20
2022-08-30T21:42:54.573Z,1.63
2022-08-30T21:45:26.909Z,1.27
2022-08-30T21:48:00.990Z,1.33
2022-08-30T21:50:29.935Z,1.38
2022-08-30T21:52:58.863Z,1.17
2022-08-30T21:55:43.927Z,1.05
2022-08-30T21:58:15.380Z,1.27
2022-08-30T22:00:47.575Z,1.00
2022-08-30T22:03:19.092Z,1.00
2022-08-30T22:05:54.492Z,1.27
2022-08-30T22:08:25.871Z,0.95
2022-08-30T22:10:55.073Z,1.30
2022-08-30T22:13:25.210Z,1.20
2022-08-30T22:15:54.754Z,0.80
2022-08-30T22:18:26.297Z,0.98
2022-08-30T22:20:58.303Z,1.20
2022-08-30T22:23:29.674Z,1.38
2022-08-30T22:26:28.526Z,1.05
2022-08-30T22:28:58.376Z,0.95
2022-08-30T22:31:27.051Z,1.15
2022-08-30T22:34:16.773Z,2.13
2022-08-30T22:36:46.470Z,1.95
2022-08-30T22:39:16.421Z,1.33
2022-08-30T22:41:54.505Z,1.13
2022-08-30T22:44:24.175Z,1.17
2022-08-30T22:46:53.888Z,1.13
2022-08-30T22:49:21.826Z,0.90
2022-08-30T22:51:53.075Z,0.60
2022-08-30T22:54:24.529Z,1.23
2022-08-30T22:56:52.936Z,1.20
2022-08-30T22:59:40.684Z,0.88
2022-08-30T23:02:13.524Z,1.02
2022-08-30T23:04:43.264Z,0.70
2022-08-30T23:07:14.445Z,1.17
2022-08-30T23:09:46.417Z,1.10
2022-08-30T23:12:16.937Z,1.10
2022-08-30T23:14:46.900Z,1.23
2022-08-30T23:17:17.935Z,1.40
2022-08-30T23:19:46.233Z,1.20
2022-08-30T23:22:33.410Z,1.05
2022-08-30T23:25:22.371Z,1.60
2022-08-30T23:28:19.073Z,1.50
2022-08-30T23:31:08.987Z,0.90
2022-08-30T23:34:10.438Z,1.38
2022-08-30T23:36:59.319Z,0.88
2022-08-30T23:39:46.569Z,1.00
2022-08-30T23:42:39.362Z,1.27
2022-08-30T23:45:27.293Z,1.10
2022-08-30T23:48:28.491Z,0.95
2022-08-30T23:51:21.886Z,1.30
2022-08-30T23:54:24.500Z,1.40
2022-08-30T23:57:10.876Z,1.02
